sensor_id;sensor_type;location;lat;lon;timestamp;noise_LAeq;noise_LA_min;noise_LA_max;noise_LA01;noise_LA95
77135;Laerm;48586;50.122;18.972;2023-05-27T00:01:41;39.30;34.15;49.90;;
77135;Laerm;48586;50.122;18.972;2023-05-27T00:03:48;42.60;34.15;54.74;;
77135;Laerm;48586;50.122;18.972;2023-05-27T00:05:53;43.91;34.27;57.48;;
77135;Laerm;48586;50.122;18.972;2023-05-27T00:07:58;36.66;34.24;44.44;;
77135;Laerm;48586;50.122;18.972;2023-05-27T00:10:03;42.70;34.18;52.92;;
77135;Laerm;48586;50.122;18.972;2023-05-27T00:12:08;44.16;35.24;53.67;;
77135;Laerm;48586;50.122;18.972;2023-05-27T00:14:14;40.91;34.55;49.35;;
77135;Laerm;48586;50.122;18.972;2023-05-27T00:16:18;39.53;34.50;49.40;;
77135;Laerm;48586;50.122;18.972;2023-05-27T00:18:24;35.58;34.18;45.68;;
77135;Laerm;48586;50.122;18.972;2023-05-27T00:20:31;44.71;34.25;56.17;;
77135;Laerm;48586;50.122;18.972;2023-05-27T00:22:35;43.65;34.55;52.92;;
77135;Laerm;48586;50.122;18.972;2023-05-27T00:24:41;36.62;34.03;43.04;;
77135;Laerm;48586;50.122;18.972;2023-05-27T00:26:46;36.36;34.12;50.87;;
77135;Laerm;48586;50.122;18.972;2023-05-27T00:28:51;40.43;34.35;51.98;;
77135;Laerm;48586;50.122;18.972;2023-05-27T00:30:57;37.66;34.53;48.26;;
77135;Laerm;48586;50.122;18.972;2023-05-27T00:33:03;42.79;36.72;52.99;;
77135;Laerm;48586;50.122;18.972;2023-05-27T00:35:09;43.24;35.13;50.25;;
77135;Laerm;48586;50.122;18.972;2023-05-27T00:37:17;45.71;34.60;55.84;;
77135;Laerm;48586;50.122;18.972;2023-05-27T00:39:22;35.92;34.34;41.61;;
77135;Laerm;48586;50.122;18.972;2023-05-27T00:41:27;39.26;34.29;49.72;;
77135;Laerm;48586;50.122;18.972;2023-05-27T00:43:34;40.42;34.54;49.80;;
77135;Laerm;48586;50.122;18.972;2023-05-27T00:45:38;43.62;35.23;53.71;;
77135;Laerm;48586;50.122;18.972;2023-05-27T00:47:45;36.54;34.40;41.04;;
77135;Laerm;48586;50.122;18.972;2023-05-27T00:49:50;41.00;34.05;54.30;;
77135;Laerm;48586;50.122;18.972;2023-05-27T00:51:57;39.52;34.40;49.44;;
77135;Laerm;48586;50.122;18.972;2023-05-27T00:54:07;35.61;34.26;39.52;;
77135;Laerm;48586;50.122;18.972;2023-05-27T00:56:14;43.02;34.41;54.88;;
77135;Laerm;48586;50.122;18.972;2023-05-27T00:58:20;35.65;34.39;38.58;;
77135;Laerm;48586;50.122;18.972;2023-05-27T01:00:25;35.95;34.21;39.89;;
77135;Laerm;48586;50.122;18.972;2023-05-27T01:02:32;35.97;34.23;39.21;;
77135;Laerm;48586;50.122;18.972;2023-05-27T01:04:38;43.72;34.67;55.52;;
77135;Laerm;48586;50.122;18.972;2023-05-27T01:06:58;39.44;34.52;49.57;;
77135;Laerm;48586;50.122;18.972;2023-05-27T01:09:22;35.95;34.49;41.06;;
77135;Laerm;48586;50.122;18.972;2023-05-27T01:11:40;39.52;34.35;50.57;;
77135;Laerm;48586;50.122;18.972;2023-05-27T01:13:55;43.76;34.64;56.23;;
77135;Laerm;48586;50.122;18.972;2023-05-27T01:16:11;40.19;34.65;51.91;;
77135;Laerm;48586;50.122;18.972;2023-05-27T01:18:17;41.76;34.76;53.00;;
77135;Laerm;48586;50.122;18.972;2023-05-27T01:20:25;39.50;34.31;49.22;;
77135;Laerm;48586;50.122;18.972;2023-05-27T01:22:35;36.00;34.45;39.91;;
77135;Laerm;48586;50.122;18.972;2023-05-27T01:24:44;38.22;34.09;51.18;;
77135;Laerm;48586;50.122;18.972;2023-05-27T01:26:49;35.98;34.48;48.39;;
77135;Laerm;48586;50.122;18.972;2023-05-27T01:28:56;39.46;35.07;59.07;;
77135;Laerm;48586;50.122;18.972;2023-05-27T01:31:23;46.60;36.95;57.08;;
77135;Laerm;48586;50.122;18.972;2023-05-27T01:33:37;38.49;34.83;47.25;;
77135;Laerm;48586;50.122;18.972;2023-05-27T01:35:51;41.63;34.69;52.30;;
77135;Laerm;48586;50.122;18.972;2023-05-27T01:38:09;37.63;34.57;52.87;;
77135;Laerm;48586;50.122;18.972;2023-05-27T01:40:15;37.48;34.28;49.94;;
77135;Laerm;48586;50.122;18.972;2023-05-27T01:42:22;39.74;34.83;56.85;;
77135;Laerm;48586;50.122;18.972;2023-05-27T01:44:30;41.64;34.69;59.51;;
77135;Laerm;48586;50.122;18.972;2023-05-27T01:46:35;37.96;34.64;53.99;;
77135;Laerm;48586;50.122;18.972;2023-05-27T01:48:41;40.21;35.38;57.60;;
77135;Laerm;48586;50.122;18.972;2023-05-27T01:50:46;42.67;34.33;61.31;;
77135;Laerm;48586;50.122;18.972;2023-05-27T01:52:51;39.96;34.60;56.57;;
77135;Laerm;48586;50.122;18.972;2023-05-27T01:54:59;38.32;34.49;61.76;;
77135;Laerm;48586;50.122;18.972;2023-05-27T01:57:07;37.93;34.84;57.93;;
77135;Laerm;48586;50.122;18.972;2023-05-27T01:59:12;44.04;34.91;58.16;;
77135;Laerm;48586;50.122;18.972;2023-05-27T02:01:18;38.66;34.52;56.94;;
77135;Laerm;48586;50.122;18.972;2023-05-27T02:03:23;39.23;34.58;57.67;;
77135;Laerm;48586;50.122;18.972;2023-05-27T02:05:29;38.23;34.61;54.96;;
77135;Laerm;48586;50.122;18.972;2023-05-27T02:07:34;39.38;34.75;47.18;;
77135;Laerm;48586;50.122;18.972;2023-05-27T02:09:41;39.25;34.22;53.18;;
77135;Laerm;48586;50.122;18.972;2023-05-27T02:11:50;40.39;34.17;52.81;;
77135;Laerm;48586;50.122;18.972;2023-05-27T02:13:55;43.55;34.45;53.09;;
77135;Laerm;48586;50.122;18.972;2023-05-27T02:16:02;43.58;34.41;54.76;;
77135;Laerm;48586;50.122;18.972;2023-05-27T02:18:10;36.01;34.48;38.93;;
77135;Laerm;48586;50.122;18.972;2023-05-27T02:20:14;37.69;34.06;54.04;;
77135;Laerm;48586;50.122;18.972;2023-05-27T02:22:19;46.07;35.47;71.05;;
77135;Laerm;48586;50.122;18.972;2023-05-27T02:24:25;46.30;36.73;62.41;;
77135;Laerm;48586;50.122;18.972;2023-05-27T02:26:30;39.99;34.70;48.31;;
77135;Laerm;48586;50.122;18.972;2023-05-27T02:28:41;45.75;34.85;54.12;;
77135;Laerm;48586;50.122;18.972;2023-05-27T02:30:47;41.44;34.71;50.33;;
77135;Laerm;48586;50.122;18.972;2023-05-27T02:32:52;45.23;34.52;56.06;;
77135;Laerm;48586;50.122;18.972;2023-05-27T02:34:58;40.34;34.68;54.49;;
77135;Laerm;48586;50.122;18.972;2023-05-27T02:37:04;41.97;34.84;54.83;;
77135;Laerm;48586;50.122;18.972;2023-05-27T02:39:10;43.09;35.03;55.84;;
77135;Laerm;48586;50.122;18.972;2023-05-27T02:41:15;42.65;35.07;55.29;;
77135;Laerm;48586;50.122;18.972;2023-05-27T02:43:20;39.44;34.90;47.54;;
77135;Laerm;48586;50.122;18.972;2023-05-27T02:45:27;38.33;35.26;55.39;;
77135;Laerm;48586;50.122;18.972;2023-05-27T02:47:32;41.55;35.49;56.86;;
77135;Laerm;48586;50.122;18.972;2023-05-27T02:49:38;43.12;35.49;58.77;;
77135;Laerm;48586;50.122;18.972;2023-05-27T02:51:43;44.26;34.99;58.72;;
77135;Laerm;48586;50.122;18.972;2023-05-27T02:53:49;39.73;35.19;54.62;;
77135;Laerm;48586;50.122;18.972;2023-05-27T02:55:55;44.94;35.10;56.51;;
77135;Laerm;48586;50.122;18.972;2023-05-27T02:58:01;45.57;35.14;57.68;;
77135;Laerm;48586;50.122;18.972;2023-05-27T03:00:08;42.66;35.38;53.84;;
77135;Laerm;48586;50.122;18.972;2023-05-27T03:02:17;51.42;35.62;69.88;;
77135;Laerm;48586;50.122;18.972;2023-05-27T03:04:22;47.06;36.17;56.84;;
77135;Laerm;48586;50.122;18.972;2023-05-27T03:06:28;43.23;35.21;57.18;;
77135;Laerm;48586;50.122;18.972;2023-05-27T03:08:34;42.70;35.04;56.75;;
77135;Laerm;48586;50.122;18.972;2023-05-27T03:10:39;47.37;35.85;63.88;;
77135;Laerm;48586;50.122;18.972;2023-05-27T03:12:44;52.20;35.34;66.76;;
77135;Laerm;48586;50.122;18.972;2023-05-27T03:14:50;48.18;35.53;63.85;;
77135;Laerm;48586;50.122;18.972;2023-05-27T03:16:56;45.72;35.29;61.12;;
77135;Laerm;48586;50.122;18.972;2023-05-27T03:19:04;45.64;34.92;58.48;;
77135;Laerm;48586;50.122;18.972;2023-05-27T03:21:12;43.90;35.24;55.56;;
77135;Laerm;48586;50.122;18.972;2023-05-27T03:23:19;43.48;35.63;52.99;;
77135;Laerm;48586;50.122;18.972;2023-05-27T03:25:24;45.11;36.55;54.79;;
77135;Laerm;48586;50.122;18.972;2023-05-27T03:27:35;45.49;35.65;61.27;;
77135;Laerm;48586;50.122;18.972;2023-05-27T03:29:43;43.93;35.67;56.79;;
77135;Laerm;48586;50.122;18.972;2023-05-27T03:31:50;45.84;37.24;54.43;;
77135;Laerm;48586;50.122;18.972;2023-05-27T03:33:57;47.59;35.64;69.22;;
77135;Laerm;48586;50.122;18.972;2023-05-27T03:36:05;44.16;35.54;54.95;;
77135;Laerm;48586;50.122;18.972;2023-05-27T03:38:10;45.22;35.71;56.71;;
77135;Laerm;48586;50.122;18.972;2023-05-27T03:40:15;45.35;36.02;59.65;;
77135;Laerm;48586;50.122;18.972;2023-05-27T03:42:20;55.69;35.79;72.06;;
77135;Laerm;48586;50.122;18.972;2023-05-27T03:44:25;47.36;36.29;56.19;;
77135;Laerm;48586;50.122;18.972;2023-05-27T03:46:30;47.00;36.31;55.82;;
77135;Laerm;48586;50.122;18.972;2023-05-27T03:48:34;46.77;36.84;58.28;;
77135;Laerm;48586;50.122;18.972;2023-05-27T03:50:38;42.88;35.56;55.70;;
77135;Laerm;48586;50.122;18.972;2023-05-27T03:52:46;43.71;35.49;57.82;;
77135;Laerm;48586;50.122;18.972;2023-05-27T03:54:51;46.31;35.50;57.13;;
77135;Laerm;48586;50.122;18.972;2023-05-27T03:56:55;48.37;35.80;60.24;;
77135;Laerm;48586;50.122;18.972;2023-05-27T03:59:01;46.92;35.72;63.52;;
77135;Laerm;48586;50.122;18.972;2023-05-27T04:01:05;46.65;35.98;57.01;;
77135;Laerm;48586;50.122;18.972;2023-05-27T04:03:10;45.13;35.26;56.40;;
77135;Laerm;48586;50.122;18.972;2023-05-27T04:05:15;40.98;35.43;56.93;;
77135;Laerm;48586;50.122;18.972;2023-05-27T04:07:20;44.76;35.95;54.79;;
77135;Laerm;48586;50.122;18.972;2023-05-27T04:09:30;52.41;36.69;66.81;;
77135;Laerm;48586;50.122;18.972;2023-05-27T04:11:35;47.66;35.54;58.74;;
77135;Laerm;48586;50.122;18.972;2023-05-27T04:13:39;46.67;36.03;55.23;;
77135;Laerm;48586;50.122;18.972;2023-05-27T04:15:44;47.25;36.32;55.68;;
77135;Laerm;48586;50.122;18.972;2023-05-27T04:17:50;47.23;35.35;60.07;;
77135;Laerm;48586;50.122;18.972;2023-05-27T04:19:54;48.27;35.40;62.61;;
77135;Laerm;48586;50.122;18.972;2023-05-27T04:22:00;44.09;35.97;55.64;;
77135;Laerm;48586;50.122;18.972;2023-05-27T04:24:07;47.15;35.92;59.80;;
77135;Laerm;48586;50.122;18.972;2023-05-27T04:26:14;45.70;36.70;59.10;;
77135;Laerm;48586;50.122;18.972;2023-05-27T04:28:24;46.68;36.43;56.11;;
77135;Laerm;48586;50.122;18.972;2023-05-27T04:30:29;46.90;36.34;55.90;;
77135;Laerm;48586;50.122;18.972;2023-05-27T04:32:34;48.18;35.79;69.37;;
77135;Laerm;48586;50.122;18.972;2023-05-27T04:34:39;46.04;35.50;57.77;;
77135;Laerm;48586;50.122;18.972;2023-05-27T04:36:45;47.83;35.81;62.46;;
77135;Laerm;48586;50.122;18.972;2023-05-27T04:38:52;45.31;36.61;56.67;;
77135;Laerm;48586;50.122;18.972;2023-05-27T04:40:59;42.24;35.34;55.35;;
77135;Laerm;48586;50.122;18.972;2023-05-27T04:43:45;48.28;35.21;61.11;;
77135;Laerm;48586;50.122;18.972;2023-05-27T04:45:53;46.88;36.77;55.78;;
77135;Laerm;48586;50.122;18.972;2023-05-27T04:47:58;47.58;35.73;63.54;;
77135;Laerm;48586;50.122;18.972;2023-05-27T04:50:06;47.48;36.30;59.01;;
77135;Laerm;48586;50.122;18.972;2023-05-27T04:52:11;47.48;35.55;60.81;;
77135;Laerm;48586;50.122;18.972;2023-05-27T04:54:16;49.73;36.47;62.36;;
77135;Laerm;48586;50.122;18.972;2023-05-27T04:56:22;48.01;37.09;61.76;;
77135;Laerm;48586;50.122;18.972;2023-05-27T04:58:28;45.06;36.73;52.90;;
77135;Laerm;48586;50.122;18.972;2023-05-27T05:00:36;42.43;36.50;55.01;;
77135;Laerm;48586;50.122;18.972;2023-05-27T05:02:51;46.20;36.52;59.99;;
77135;Laerm;48586;50.122;18.972;2023-05-27T05:05:06;46.10;35.39;58.64;;
77135;Laerm;48586;50.122;18.972;2023-05-27T05:07:11;44.69;38.03;53.34;;
77135;Laerm;48586;50.122;18.972;2023-05-27T05:09:17;46.41;37.17;59.94;;
77135;Laerm;48586;50.122;18.972;2023-05-27T05:11:22;45.61;37.08;53.94;;
77135;Laerm;48586;50.122;18.972;2023-05-27T05:13:27;45.47;35.88;58.63;;
77135;Laerm;48586;50.122;18.972;2023-05-27T05:15:35;45.64;36.48;56.66;;
77135;Laerm;48586;50.122;18.972;2023-05-27T05:17:40;44.76;37.36;57.72;;
77135;Laerm;48586;50.122;18.972;2023-05-27T05:19:44;45.63;37.53;53.55;;
77135;Laerm;48586;50.122;18.972;2023-05-27T05:21:50;50.44;43.19;59.11;;
77135;Laerm;48586;50.122;18.972;2023-05-27T05:23:54;60.88;47.97;69.43;;
77135;Laerm;48586;50.122;18.972;2023-05-27T05:25:58;63.21;41.45;71.26;;
77135;Laerm;48586;50.122;18.972;2023-05-27T05:28:10;46.17;36.61;56.55;;
77135;Laerm;48586;50.122;18.972;2023-05-27T05:30:15;48.13;39.19;55.71;;
77135;Laerm;48586;50.122;18.972;2023-05-27T05:32:22;43.71;35.95;52.64;;
77135;Laerm;48586;50.122;18.972;2023-05-27T05:34:28;46.84;38.38;61.90;;
77135;Laerm;48586;50.122;18.972;2023-05-27T05:36:33;47.13;38.63;57.35;;
77135;Laerm;48586;50.122;18.972;2023-05-27T05:38:43;46.70;37.29;57.31;;
77135;Laerm;48586;50.122;18.972;2023-05-27T05:40:50;48.31;37.24;59.79;;
77135;Laerm;48586;50.122;18.972;2023-05-27T05:42:56;46.49;37.77;55.72;;
77135;Laerm;48586;50.122;18.972;2023-05-27T05:45:01;47.88;40.39;58.42;;
77135;Laerm;48586;50.122;18.972;2023-05-27T05:47:07;68.28;42.02;79.56;;
77135;Laerm;48586;50.122;18.972;2023-05-27T05:49:14;47.68;39.48;57.66;;
77135;Laerm;48586;50.122;18.972;2023-05-27T05:51:20;48.22;37.36;66.13;;
77135;Laerm;48586;50.122;18.972;2023-05-27T05:53:30;47.42;38.62;64.18;;
77135;Laerm;48586;50.122;18.972;2023-05-27T05:55:35;47.96;39.08;59.34;;
77135;Laerm;48586;50.122;18.972;2023-05-27T05:57:39;50.56;39.96;67.08;;
77135;Laerm;48586;50.122;18.972;2023-05-27T05:59:44;49.05;40.87;62.71;;
77135;Laerm;48586;50.122;18.972;2023-05-27T06:01:48;49.32;42.47;57.36;;
77135;Laerm;48586;50.122;18.972;2023-05-27T06:03:55;51.24;38.86;61.16;;
77135;Laerm;48586;50.122;18.972;2023-05-27T06:06:15;47.74;39.92;60.85;;
77135;Laerm;48586;50.122;18.972;2023-05-27T06:08:37;47.13;38.09;57.56;;
77135;Laerm;48586;50.122;18.972;2023-05-27T06:10:47;46.57;38.83;61.72;;
77135;Laerm;48586;50.122;18.972;2023-05-27T06:12:52;47.18;39.66;62.36;;
77135;Laerm;48586;50.122;18.972;2023-05-27T06:14:56;47.38;37.82;56.92;;
77135;Laerm;48586;50.122;18.972;2023-05-27T06:17:08;48.83;39.31;61.46;;
77135;Laerm;48586;50.122;18.972;2023-05-27T06:19:13;47.59;38.78;59.36;;
77135;Laerm;48586;50.122;18.972;2023-05-27T06:21:20;47.52;38.13;62.07;;
77135;Laerm;48586;50.122;18.972;2023-05-27T06:23:53;48.74;40.42;57.45;;
77135;Laerm;48586;50.122;18.972;2023-05-27T06:26:01;48.09;40.75;58.02;;
77135;Laerm;48586;50.122;18.972;2023-05-27T06:28:11;48.57;38.98;56.71;;
77135;Laerm;48586;50.122;18.972;2023-05-27T06:30:15;47.44;39.85;56.09;;
77135;Laerm;48586;50.122;18.972;2023-05-27T06:32:22;47.82;39.97;55.93;;
77135;Laerm;48586;50.122;18.972;2023-05-27T06:34:26;63.08;39.91;81.46;;
77135;Laerm;48586;50.122;18.972;2023-05-27T06:36:33;71.87;41.85;82.69;;
77135;Laerm;48586;50.122;18.972;2023-05-27T06:38:38;49.08;40.31;58.07;;
77135;Laerm;48586;50.122;18.972;2023-05-27T06:40:43;49.26;38.09;58.18;;
77135;Laerm;48586;50.122;18.972;2023-05-27T06:42:48;50.33;42.36;59.35;;
77135;Laerm;48586;50.122;18.972;2023-05-27T06:45:13;48.17;40.04;58.14;;
77135;Laerm;48586;50.122;18.972;2023-05-27T06:47:24;50.08;39.37;58.45;;
77135;Laerm;48586;50.122;18.972;2023-05-27T06:49:29;60.60;46.11;70.41;;
77135;Laerm;48586;50.122;18.972;2023-05-27T06:51:42;56.75;43.52;70.96;;
77135;Laerm;48586;50.122;18.972;2023-05-27T06:53:46;47.92;39.48;55.17;;
77135;Laerm;48586;50.122;18.972;2023-05-27T06:55:57;48.51;40.39;60.30;;
77135;Laerm;48586;50.122;18.972;2023-05-27T06:58:32;47.98;37.66;56.86;;
77135;Laerm;48586;50.122;18.972;2023-05-27T07:00:43;47.83;37.57;57.97;;
77135;Laerm;48586;50.122;18.972;2023-05-27T07:02:58;53.25;38.98;70.40;;
77135;Laerm;48586;50.122;18.972;2023-05-27T07:05:06;53.89;41.81;76.00;;
77135;Laerm;48586;50.122;18.972;2023-05-27T07:07:15;51.71;41.19;63.92;;
77135;Laerm;48586;50.122;18.972;2023-05-27T07:09:20;46.36;37.70;57.73;;
77135;Laerm;48586;50.122;18.972;2023-05-27T07:11:26;49.23;37.76;64.19;;
77135;Laerm;48586;50.122;18.972;2023-05-27T07:13:36;51.78;39.51;73.91;;
77135;Laerm;48586;50.122;18.972;2023-05-27T07:15:42;49.26;38.67;56.35;;
77135;Laerm;48586;50.122;18.972;2023-05-27T07:17:49;51.78;38.04;63.06;;
77135;Laerm;48586;50.122;18.972;2023-05-27T07:19:53;47.02;39.32;65.58;;
77135;Laerm;48586;50.122;18.972;2023-05-27T07:21:58;48.81;39.11;56.45;;
77135;Laerm;48586;50.122;18.972;2023-05-27T07:24:08;49.18;40.72;57.99;;
77135;Laerm;48586;50.122;18.972;2023-05-27T07:26:13;49.88;40.55;63.09;;
77135;Laerm;48586;50.122;18.972;2023-05-27T07:28:19;48.73;41.39;64.23;;
77135;Laerm;48586;50.122;18.972;2023-05-27T07:30:38;47.40;40.96;56.21;;
77135;Laerm;48586;50.122;18.972;2023-05-27T07:32:44;47.95;37.45;58.29;;
77135;Laerm;48586;50.122;18.972;2023-05-27T07:34:50;49.67;39.91;66.13;;
77135;Laerm;48586;50.122;18.972;2023-05-27T07:36:55;49.65;40.25;62.46;;
77135;Laerm;48586;50.122;18.972;2023-05-27T07:39:01;47.77;37.86;62.91;;
77135;Laerm;48586;50.122;18.972;2023-05-27T07:41:10;48.59;39.68;56.69;;
77135;Laerm;48586;50.122;18.972;2023-05-27T07:43:15;46.41;37.45;57.87;;
77135;Laerm;48586;50.122;18.972;2023-05-27T07:45:21;48.62;39.14;61.26;;
77135;Laerm;48586;50.122;18.972;2023-05-27T07:47:26;48.56;40.92;61.81;;
77135;Laerm;48586;50.122;18.972;2023-05-27T07:49:32;46.52;38.60;55.10;;
77135;Laerm;48586;50.122;18.972;2023-05-27T07:51:55;54.89;38.61;71.02;;
77135;Laerm;48586;50.122;18.972;2023-05-27T07:54:00;47.48;40.06;61.75;;
77135;Laerm;48586;50.122;18.972;2023-05-27T07:56:08;64.20;40.27;80.68;;
77135;Laerm;48586;50.122;18.972;2023-05-27T07:58:14;72.70;41.68;81.66;;
77135;Laerm;48586;50.122;18.972;2023-05-27T08:00:36;47.71;38.10;60.96;;
77135;Laerm;48586;50.122;18.972;2023-05-27T08:02:42;48.96;41.14;56.37;;
77135;Laerm;48586;50.122;18.972;2023-05-27T08:04:47;48.90;39.90;60.89;;
77135;Laerm;48586;50.122;18.972;2023-05-27T08:07:07;48.34;38.12;60.05;;
77135;Laerm;48586;50.122;18.972;2023-05-27T08:09:38;48.79;38.69;57.05;;
77135;Laerm;48586;50.122;18.972;2023-05-27T08:12:05;48.54;39.29;56.12;;
77135;Laerm;48586;50.122;18.972;2023-05-27T08:14:29;49.21;39.33;63.38;;
77135;Laerm;48586;50.122;18.972;2023-05-27T08:16:53;49.09;41.07;59.24;;
77135;Laerm;48586;50.122;18.972;2023-05-27T08:19:13;48.08;39.29;63.91;;
77135;Laerm;48586;50.122;18.972;2023-05-27T08:21:42;48.50;40.02;56.71;;
77135;Laerm;48586;50.122;18.972;2023-05-27T08:24:13;48.04;38.36;59.44;;
77135;Laerm;48586;50.122;18.972;2023-05-27T08:26:38;46.76;38.36;58.93;;
77135;Laerm;48586;50.122;18.972;2023-05-27T08:28:56;48.82;40.31;62.80;;
77135;Laerm;48586;50.122;18.972;2023-05-27T08:31:23;46.85;38.51;57.46;;
77135;Laerm;48586;50.122;18.972;2023-05-27T08:33:30;46.29;39.08;55.67;;
77135;Laerm;48586;50.122;18.972;2023-05-27T08:35:35;50.20;37.32;60.72;;
77135;Laerm;48586;50.122;18.972;2023-05-27T08:37:41;51.24;40.37;68.57;;
77135;Laerm;48586;50.122;18.972;2023-05-27T08:39:46;48.68;39.58;62.34;;
77135;Laerm;48586;50.122;18.972;2023-05-27T08:42:26;47.29;39.38;56.19;;
77135;Laerm;48586;50.122;18.972;2023-05-27T08:44:35;48.75;40.42;58.14;;
77135;Laerm;48586;50.122;18.972;2023-05-27T08:46:42;49.87;43.44;63.70;;
77135;Laerm;48586;50.122;18.972;2023-05-27T08:48:49;50.51;39.99;63.10;;
77135;Laerm;48586;50.122;18.972;2023-05-27T08:50:55;49.81;40.71;61.72;;
77135;Laerm;48586;50.122;18.972;2023-05-27T08:53:03;50.36;41.70;59.45;;
77135;Laerm;48586;50.122;18.972;2023-05-27T08:55:15;48.60;38.52;63.45;;
77135;Laerm;48586;50.122;18.972;2023-05-27T08:57:27;47.87;38.38;57.07;;
77135;Laerm;48586;50.122;18.972;2023-05-27T08:59:35;47.94;39.13;55.63;;
77135;Laerm;48586;50.122;18.972;2023-05-27T09:01:44;48.95;38.40;66.62;;
77135;Laerm;48586;50.122;18.972;2023-05-27T09:03:49;48.11;39.27;57.98;;
77135;Laerm;48586;50.122;18.972;2023-05-27T09:05:55;48.35;39.74;57.41;;
77135;Laerm;48586;50.122;18.972;2023-05-27T09:08:03;49.64;38.99;63.48;;
77135;Laerm;48586;50.122;18.972;2023-05-27T09:10:10;49.41;41.82;60.27;;
77135;Laerm;48586;50.122;18.972;2023-05-27T09:12:23;50.16;40.24;65.01;;
77135;Laerm;48586;50.122;18.972;2023-05-27T09:14:30;47.76;38.69;61.46;;
77135;Laerm;48586;50.122;18.972;2023-05-27T09:16:42;49.14;42.12;67.78;;
77135;Laerm;48586;50.122;18.972;2023-05-27T09:18:47;47.96;39.89;72.05;;
77135;Laerm;48586;50.122;18.972;2023-05-27T09:20:55;49.59;39.93;62.42;;
77135;Laerm;48586;50.122;18.972;2023-05-27T09:23:04;50.71;38.04;61.53;;
77135;Laerm;48586;50.122;18.972;2023-05-27T09:25:10;49.91;38.33;65.60;;
77135;Laerm;48586;50.122;18.972;2023-05-27T09:27:15;49.16;38.34;60.10;;
77135;Laerm;48586;50.122;18.972;2023-05-27T09:29:24;47.51;40.33;63.83;;
77135;Laerm;48586;50.122;18.972;2023-05-27T09:31:30;48.75;38.23;70.03;;
77135;Laerm;48586;50.122;18.972;2023-05-27T09:33:39;48.46;40.16;60.29;;
77135;Laerm;48586;50.122;18.972;2023-05-27T09:35:46;47.20;38.67;55.78;;
77135;Laerm;48586;50.122;18.972;2023-05-27T09:37:52;49.17;42.32;62.06;;
77135;Laerm;48586;50.122;18.972;2023-05-27T09:40:05;50.12;40.59;65.49;;
77135;Laerm;48586;50.122;18.972;2023-05-27T09:42:13;49.39;40.45;60.25;;
77135;Laerm;48586;50.122;18.972;2023-05-27T09:44:18;50.75;41.08;65.42;;
77135;Laerm;48586;50.122;18.972;2023-05-27T09:46:24;49.40;38.84;60.43;;
77135;Laerm;48586;50.122;18.972;2023-05-27T09:48:32;49.51;39.95;60.50;;
77135;Laerm;48586;50.122;18.972;2023-05-27T09:50:41;49.23;41.25;59.79;;
77135;Laerm;48586;50.122;18.972;2023-05-27T09:52:47;48.27;39.22;61.35;;
77135;Laerm;48586;50.122;18.972;2023-05-27T09:54:56;52.85;39.69;68.24;;
77135;Laerm;48586;50.122;18.972;2023-05-27T09:57:02;52.23;40.59;74.12;;
77135;Laerm;48586;50.122;18.972;2023-05-27T09:59:08;53.63;39.65;78.28;;
77135;Laerm;48586;50.122;18.972;2023-05-27T10:01:15;62.02;40.59;81.73;;
77135;Laerm;48586;50.122;18.972;2023-05-27T10:03:22;67.73;41.50;84.97;;
77135;Laerm;48586;50.122;18.972;2023-05-27T10:05:30;68.48;43.02;85.07;;
77135;Laerm;48586;50.122;18.972;2023-05-27T10:07:41;66.87;40.81;81.24;;
77135;Laerm;48586;50.122;18.972;2023-05-27T10:09:49;66.39;41.35;82.43;;
77135;Laerm;48586;50.122;18.972;2023-05-27T10:11:57;64.42;38.67;85.24;;
77135;Laerm;48586;50.122;18.972;2023-05-27T10:14:04;68.98;41.68;82.01;;
77135;Laerm;48586;50.122;18.972;2023-05-27T10:16:19;70.75;43.57;90.28;;
77135;Laerm;48586;50.122;18.972;2023-05-27T10:18:27;66.45;42.63;84.72;;
77135;Laerm;48586;50.122;18.972;2023-05-27T10:20:36;67.24;47.86;82.48;;
77135;Laerm;48586;50.122;18.972;2023-05-27T10:22:46;55.33;41.47;75.26;;
77135;Laerm;48586;50.122;18.972;2023-05-27T10:24:50;58.62;39.42;72.99;;
77135;Laerm;48586;50.122;18.972;2023-05-27T10:27:01;58.85;41.37;73.64;;
77135;Laerm;48586;50.122;18.972;2023-05-27T10:29:10;63.23;41.33;80.95;;
77135;Laerm;48586;50.122;18.972;2023-05-27T10:31:18;59.46;40.89;78.83;;
77135;Laerm;48586;50.122;18.972;2023-05-27T10:33:29;48.82;37.44;67.62;;
77135;Laerm;48586;50.122;18.972;2023-05-27T10:35:40;48.94;37.08;67.29;;
77135;Laerm;48586;50.122;18.972;2023-05-27T10:37:49;47.02;40.88;61.64;;
77135;Laerm;48586;50.122;18.972;2023-05-27T10:39:55;47.39;38.81;63.21;;
77135;Laerm;48586;50.122;18.972;2023-05-27T10:42:01;48.05;38.15;71.69;;
77135;Laerm;48586;50.122;18.972;2023-05-27T10:44:05;50.14;39.08;72.26;;
77135;Laerm;48586;50.122;18.972;2023-05-27T10:46:13;53.94;37.83;82.77;;
77135;Laerm;48586;50.122;18.972;2023-05-27T10:48:28;48.21;39.63;63.64;;
77135;Laerm;48586;50.122;18.972;2023-05-27T10:50:34;48.57;38.80;65.24;;
77135;Laerm;48586;50.122;18.972;2023-05-27T10:52:41;46.61;38.62;56.38;;
77135;Laerm;48586;50.122;18.972;2023-05-27T10:54:49;48.71;39.52;56.44;;
77135;Laerm;48586;50.122;18.972;2023-05-27T10:56:53;49.60;42.13;59.35;;
77135;Laerm;48586;50.122;18.972;2023-05-27T10:59:01;47.77;39.40;58.52;;
77135;Laerm;48586;50.122;18.972;2023-05-27T11:01:10;47.79;38.99;60.50;;
77135;Laerm;48586;50.122;18.972;2023-05-27T11:03:20;48.69;36.90;72.98;;
77135;Laerm;48586;50.122;18.972;2023-05-27T11:05:29;49.84;42.00;60.00;;
77135;Laerm;48586;50.122;18.972;2023-05-27T11:07:37;48.19;39.48;64.28;;
77135;Laerm;48586;50.122;18.972;2023-05-27T11:09:44;49.64;38.72;61.63;;
77135;Laerm;48586;50.122;18.972;2023-05-27T11:11:52;52.46;43.12;71.38;;
77135;Laerm;48586;50.122;18.972;2023-05-27T11:13:57;48.23;36.73;64.31;;
77135;Laerm;48586;50.122;18.972;2023-05-27T11:16:04;46.68;36.66;59.41;;
77135;Laerm;48586;50.122;18.972;2023-05-27T11:18:10;49.36;40.60;61.34;;
77135;Laerm;48586;50.122;18.972;2023-05-27T11:20:17;47.71;38.66;59.51;;
77135;Laerm;48586;50.122;18.972;2023-05-27T11:22:22;48.54;39.04;56.66;;
77135;Laerm;48586;50.122;18.972;2023-05-27T11:24:27;50.28;41.10;60.89;;
77135;Laerm;48586;50.122;18.972;2023-05-27T11:26:31;50.22;39.88;63.58;;
77135;Laerm;48586;50.122;18.972;2023-05-27T11:28:46;47.69;37.48;57.54;;
77135;Laerm;48586;50.122;18.972;2023-05-27T11:30:59;47.85;37.17;55.94;;
77135;Laerm;48586;50.122;18.972;2023-05-27T11:33:07;47.36;38.84;56.06;;
77135;Laerm;48586;50.122;18.972;2023-05-27T11:35:17;47.35;38.63;59.01;;
77135;Laerm;48586;50.122;18.972;2023-05-27T11:37:22;49.43;37.57;67.42;;
77135;Laerm;48586;50.122;18.972;2023-05-27T11:39:27;49.18;36.50;65.96;;
77135;Laerm;48586;50.122;18.972;2023-05-27T11:41:33;46.29;37.56;57.01;;
77135;Laerm;48586;50.122;18.972;2023-05-27T11:43:50;49.22;40.30;56.54;;
77135;Laerm;48586;50.122;18.972;2023-05-27T11:46:03;47.47;37.24;60.56;;
77135;Laerm;48586;50.122;18.972;2023-05-27T11:48:09;46.85;36.70;62.79;;